Time;durP1;ratioP1;P1;durP2;ratioP2;P2;SDS_P1;SDS_P2;PMS_P1;PMS_P2;Temp;Humidity;BMP_temperature;BMP_pressure;BME280_temperature;BME280_humidity;BME280_pressure;Samples;Min_cycle;Max_cycle;Signal;HPM_P1;HPM_P2
2023/12/26 00:00:30;;;;;;;9.93;3.15;;;;;;;18.27;97.54;100532.56;4999259;28;20494;-39
2023/12/26 00:02:57;;;;;;;9.20;2.42;;;;;;;18.25;97.40;100538.34;5007256;28;20056;-39
2023/12/26 00:05:23;;;;;;;7.40;2.25;;;;;;;18.25;97.60;100541.09;5007226;28;20132;-39
2023/12/26 00:07:48;;;;;;;7.70;2.65;;;;;;;18.26;97.77;100529.00;4999828;28;20081;-39
2023/12/26 00:10:15;;;;;;;13.10;2.97;;;;;;;18.25;97.69;100535.59;5002465;28;20478;-39
2023/12/26 00:12:42;;;;;;;8.60;2.50;;;;;;;18.25;97.80;100543.03;4998354;28;20065;-39
2023/12/26 00:15:08;;;;;;;9.25;2.40;;;;;;;18.23;97.75;100546.06;5002975;28;20042;-39
2023/12/26 00:17:33;;;;;;;10.93;2.65;;;;;;;18.25;97.55;100554.00;4999805;28;20443;-36
2023/12/26 00:19:59;;;;;;;8.70;2.70;;;;;;;18.23;97.65;100539.72;5003158;28;20112;-37
2023/12/26 00:22:24;;;;;;;9.25;2.88;;;;;;;18.25;97.44;100540.28;5000347;28;20025;-37
2023/12/26 00:24:50;;;;;;;8.07;2.30;;;;;;;18.25;97.57;100537.53;5002558;28;20309;-36
2023/12/26 00:27:15;;;;;;;7.55;2.60;;;;;;;18.25;97.58;100540.28;5007975;28;20036;-36
2023/12/26 00:29:41;;;;;;;10.50;2.90;;;;;;;18.25;97.48;100532.84;5001930;28;20093;-36
2023/12/26 00:32:06;;;;;;;8.63;2.80;;;;;;;18.28;97.46;100536.94;5004192;28;20046;-36
2023/12/26 00:34:32;;;;;;;9.52;2.92;;;;;;;18.29;97.32;100544.06;5005295;28;20033;-36
2023/12/26 00:36:57;;;;;;;6.60;2.22;;;;;;;18.29;97.38;100535.84;5000451;28;20034;-39
2023/12/26 00:39:23;;;;;;;5.63;2.42;;;;;;;18.31;97.35;100552.00;5009434;28;20095;-37
2023/12/26 00:41:48;;;;;;;9.93;2.92;;;;;;;18.28;97.49;100535.03;5004703;28;20060;-36
2023/12/26 00:44:13;;;;;;;9.18;3.03;;;;;;;18.28;97.64;100534.19;4986973;28;20025;-36
2023/12/26 00:46:39;;;;;;;8.77;2.85;;;;;;;18.28;97.71;100531.47;5000808;28;20034;-36
2023/12/26 00:49:04;;;;;;;8.45;2.80;;;;;;;18.27;97.73;100533.41;4990876;28;20029;-36
2023/12/26 00:51:30;;;;;;;9.63;2.72;;;;;;;18.27;97.95;100549.03;4997063;28;20090;-36
2023/12/26 00:53:56;;;;;;;8.10;2.67;;;;;;;18.26;97.98;100548.22;5001005;28;20290;-38
2023/12/26 00:56:21;;;;;;;8.27;2.33;;;;;;;18.26;98.20;100550.16;4984332;28;20112;-38
2023/12/26 00:58:47;;;;;;;12.48;2.88;;;;;;;18.25;98.05;100554.00;5002568;28;20037;-40
2023/12/26 01:01:12;;;;;;;7.97;2.13;;;;;;;18.26;98.01;100544.66;5000452;28;20037;-38
2023/12/26 01:03:37;;;;;;;8.57;2.72;;;;;;;18.25;97.86;100557.53;5004409;28;20026;-38
2023/12/26 01:06:03;;;;;;;7.78;3.05;;;;;;;18.25;98.28;100546.56;5001682;28;20466;-39
2023/12/26 01:08:28;;;;;;;8.90;2.30;;;;;;;18.24;98.35;100547.66;4996656;28;20025;-38
2023/12/26 01:10:54;;;;;;;11.05;2.60;;;;;;;18.22;98.49;100558.13;5011381;28;20584;-38
2023/12/26 01:13:19;;;;;;;10.27;2.90;;;;;;;18.23;98.37;100562.50;5001982;28;20038;-38
2023/12/26 01:15:45;;;;;;;7.68;2.28;;;;;;;18.23;98.52;100551.53;4994173;28;20132;-36
2023/12/26 01:18:10;;;;;;;8.75;2.53;;;;;;;18.23;98.23;100562.50;4999699;28;20025;-36
2023/12/26 01:20:36;;;;;;;7.47;2.50;;;;;;;18.23;98.32;100575.41;5012293;28;20037;-37
2023/12/26 01:23:02;;;;;;;10.60;2.78;;;;;;;18.22;98.61;100571.00;5000798;28;20333;-37
2023/12/26 01:25:28;;;;;;;8.30;2.35;;;;;;;18.21;98.30;100575.69;5000981;28;20064;-39
2023/12/26 01:27:53;;;;;;;7.95;2.30;;;;;;;18.21;98.58;100577.59;5001780;28;20166;-39
2023/12/26 01:30:19;;;;;;;7.78;2.53;;;;;;;18.21;98.57;100577.59;5007628;28;20709;-37
2023/12/26 01:32:44;;;;;;;6.18;2.33;;;;;;;18.21;98.56;100577.59;5005500;28;20380;-37
2023/12/26 01:35:10;;;;;;;10.38;2.67;;;;;;;18.20;98.57;100585.00;5003761;28;20026;-39
2023/12/26 01:37:35;;;;;;;9.48;2.58;;;;;;;18.21;98.73;100580.34;5002847;28;20038;-39
2023/12/26 01:40:01;;;;;;;8.90;2.42;;;;;;;18.20;98.83;100581.47;5010027;28;20052;-39
2023/12/26 01:42:26;;;;;;;9.18;2.60;;;;;;;18.20;98.52;100582.28;5010783;28;20231;-39
2023/12/26 01:44:51;;;;;;;7.15;2.22;;;;;;;18.20;98.84;100589.69;5005042;28;20437;-39
2023/12/26 01:47:17;;;;;;;7.43;2.80;;;;;;;18.20;98.78;100600.66;5004669;28;20043;-39
2023/12/26 01:49:43;;;;;;;6.13;2.10;;;;;;;18.20;98.59;100606.16;5005648;28;20018;-39
2023/12/26 01:52:09;;;;;;;9.80;2.78;;;;;;;18.20;98.93;100586.94;5006294;28;20022;-36
2023/12/26 01:54:37;;;;;;;6.90;2.10;;;;;;;18.20;98.71;100586.94;5003074;28;20624;-39
2023/12/26 01:57:06;;;;;;;7.68;2.03;;;;;;;18.19;98.84;100612.75;4986252;28;20066;-36
2023/12/26 01:59:33;;;;;;;6.65;2.00;;;;;;;18.18;98.79;100609.16;4987572;28;20026;-37
2023/12/26 02:01:59;;;;;;;7.45;2.20;;;;;;;18.18;98.53;100611.91;5002809;28;20041;-37
2023/12/26 02:04:24;;;;;;;8.75;2.38;;;;;;;18.19;98.65;100613.53;4986642;28;20100;-38
2023/12/26 02:06:50;;;;;;;7.70;2.15;;;;;;;18.19;98.94;100616.28;5013591;28;20172;-39
2023/12/26 02:09:16;;;;;;;8.05;2.10;;;;;;;18.18;98.91;100622.06;5011422;28;20075;-39
2023/12/26 02:11:42;;;;;;;6.68;1.98;;;;;;;18.18;99.15;100633.03;5006235;28;20022;-37
2023/12/26 02:14:09;;;;;;;5.13;1.70;;;;;;;18.18;98.97;100638.53;5004211;28;20036;-39
2023/12/26 02:16:36;;;;;;;6.43;2.30;;;;;;;18.18;98.82;100636.59;5002350;28;20037;-38
2023/12/26 02:19:02;;;;;;;8.13;2.10;;;;;;;18.18;99.06;100658.53;5002320;28;20614;-38
2023/12/26 02:21:27;;;;;;;5.45;2.00;;;;;;;18.18;98.83;100647.56;4993453;28;20042;-39
2023/12/26 02:23:53;;;;;;;5.85;2.17;;;;;;;18.18;98.62;100658.53;5002689;28;20017;-36
2023/12/26 02:26:21;;;;;;;6.18;1.90;;;;;;;18.18;98.55;100657.72;4983620;28;20656;-37
2023/12/26 02:28:47;;;;;;;10.57;2.70;;;;;;;18.18;98.59;100653.03;4983595;28;20038;-37
2023/12/26 02:31:13;;;;;;;8.57;2.10;;;;;;;18.17;98.54;100647.84;4968544;28;20327;-39
2023/12/26 02:33:38;;;;;;;5.72;1.92;;;;;;;18.17;98.55;100645.91;4970186;28;20030;-38
2023/12/26 02:36:04;;;;;;;5.05;1.80;;;;;;;18.17;98.64;100654.13;5008439;28;20419;-39
2023/12/26 02:38:30;;;;;;;7.70;1.90;;;;;;;18.17;98.79;100662.38;4991570;28;20057;-36
2023/12/26 02:40:55;;;;;;;6.05;2.08;;;;;;;18.17;98.51;100667.06;4998553;28;20283;-38
2023/12/26 02:43:26;;;;;;;5.22;2.00;;;;;;;18.16;98.66;100668.97;4990507;28;20113;-37
2023/12/26 02:45:51;;;;;;;6.03;1.63;;;;;;;18.17;98.52;100681.56;4973180;28;20110;-38
2023/12/26 02:48:17;;;;;;;4.80;1.83;;;;;;;18.17;98.42;100675.28;4983201;28;20031;-37
2023/12/26 02:50:43;;;;;;;6.15;1.92;;;;;;;18.17;98.46;100689.81;4964497;28;20030;-37
2023/12/26 02:53:09;;;;;;;4.43;1.95;;;;;;;18.18;98.64;100698.88;4993194;28;20040;-38
2023/12/26 02:55:34;;;;;;;7.65;2.28;;;;;;;18.17;98.47;100711.75;4963762;28;20031;-36
2023/12/26 02:58:00;;;;;;;6.20;2.00;;;;;;;18.17;98.46;100713.69;4980497;28;20045;-37
2023/12/26 03:00:25;;;;;;;4.97;1.80;;;;;;;18.17;98.53;100730.13;4984368;28;20084;-37
2023/12/26 03:02:50;;;;;;;7.82;1.88;;;;;;;18.16;98.06;100717.50;4993770;28;20029;-39
2023/12/26 03:05:16;;;;;;;7.95;1.77;;;;;;;18.18;97.92;100718.06;4994892;28;20033;-40
2023/12/26 03:07:41;;;;;;;7.82;1.98;;;;;;;18.16;98.19;100723.00;5005803;28;20165;-38
2023/12/26 03:10:09;;;;;;;4.68;1.80;;;;;;;18.17;98.17;100724.66;4994057;28;20026;-40
2023/12/26 03:12:35;;;;;;;6.13;1.80;;;;;;;18.17;98.07;100749.34;4992554;28;20041;-37
2023/12/26 03:15:00;;;;;;;4.13;1.60;;;;;;;18.15;98.30;100746.88;4992271;28;20045;-35
2023/12/26 03:17:26;;;;;;;4.95;2.00;;;;;;;18.15;98.10;100749.63;4992434;28;20034;-37
2023/12/26 03:19:51;;;;;;;5.97;1.90;;;;;;;18.14;97.97;100742.50;4970948;28;20072;-39
2023/12/26 03:22:18;;;;;;;7.25;2.15;;;;;;;18.14;97.90;100756.22;4994462;28;20021;-39
2023/12/26 03:24:44;;;;;;;4.28;1.75;;;;;;;18.15;97.97;100751.53;4997553;28;20018;-40
2023/12/26 03:27:10;;;;;;;4.15;1.90;;;;;;;18.14;97.95;100755.41;4994244;28;20400;-39
2023/12/26 03:29:36;;;;;;;5.22;1.90;;;;;;;18.14;98.17;100755.41;4997166;28;20050;-41
2023/12/26 03:32:01;;;;;;;5.75;1.80;;;;;;;18.13;97.98;100757.31;4997995;28;20068;-39
2023/12/26 03:34:27;;;;;;;5.45;1.67;;;;;;;18.14;97.86;100755.41;5002032;28;20036;-40
2023/12/26 03:36:52;;;;;;;5.90;1.80;;;;;;;18.11;97.56;100759.50;5005638;28;20037;-40
2023/12/26 03:39:18;;;;;;;3.58;1.65;;;;;;;18.12;97.73;100761.97;5012905;28;20433;-39
2023/12/26 03:41:48;;;;;;;9.43;2.25;;;;;;;18.12;97.69;100769.38;5003175;28;20459;-36
2023/12/26 03:44:16;;;;;;;5.13;1.85;;;;;;;18.11;97.38;100767.72;4999925;28;20506;-38
2023/12/26 03:46:42;;;;;;;5.78;1.75;;;;;;;18.12;97.42;100769.38;4999252;28;20679;-44
2023/12/26 03:49:07;;;;;;;9.55;2.10;;;;;;;18.10;97.41;100775.16;4991850;28;20064;-39
2023/12/26 03:51:33;;;;;;;7.53;1.80;;;;;;;18.09;97.34;100762.53;4975205;28;20041;-38
2023/12/26 03:53:59;;;;;;;5.40;1.45;;;;;;;18.10;97.29;100757.88;5003811;28;20020;-39
2023/12/26 03:56:29;;;;;;;9.20;2.20;;;;;;;18.10;97.67;100774.34;5001773;28;20326;-39
2023/12/26 03:58:55;;;;;;;6.50;2.30;;;;;;;18.09;97.46;100773.50;4993776;28;20025;-37
2023/12/26 04:01:21;;;;;;;5.22;1.88;;;;;;;18.14;98.00;100774.59;4986987;28;20035;-39
2023/12/26 04:03:46;;;;;;;11.68;1.95;;;;;;;18.21;98.08;100789.66;5000244;28;20041;-40
2023/12/26 04:06:12;;;;;;;7.53;2.00;;;;;;;18.27;98.18;100793.19;5009638;28;20390;-36
2023/12/26 04:08:37;;;;;;;4.05;1.70;;;;;;;18.36;98.16;100804.41;4999618;28;20118;-37
2023/12/26 04:11:03;;;;;;;6.55;2.10;;;;;;;18.43;97.92;100802.19;5004294;28;20026;-37
2023/12/26 04:13:29;;;;;;;5.53;1.60;;;;;;;18.51;97.73;100806.28;4983462;28;20395;-37
2023/12/26 04:15:54;;;;;;;6.57;1.90;;;;;;;18.56;97.17;100817.22;4999431;28;20033;-37
2023/12/26 04:18:20;;;;;;;5.93;1.83;;;;;;;18.62;96.82;100815.28;4986503;28;20149;-38
2023/12/26 04:20:46;;;;;;;5.63;1.90;;;;;;;18.67;95.96;100831.72;5002092;28;20461;-36
2023/12/26 04:23:11;;;;;;;5.18;1.63;;;;;;;18.72;95.83;100820.72;5000599;28;20041;-37
2023/12/26 04:25:36;;;;;;;7.28;2.08;;;;;;;18.76;95.20;100830.03;4998527;28;20021;-36
2023/12/26 04:28:02;;;;;;;6.25;1.73;;;;;;;18.78;94.60;100841.56;5007568;28;20448;-35
2023/12/26 04:30:27;;;;;;;5.13;1.65;;;;;;;18.81;94.34;100841.00;4999248;28;20443;-36
2023/12/26 04:32:53;;;;;;;7.18;1.95;;;;;;;18.84;94.10;100840.44;5006665;28;20109;-38
2023/12/26 04:35:18;;;;;;;7.75;2.08;;;;;;;18.87;93.56;100844.53;4999854;28;20025;-38
2023/12/26 04:37:43;;;;;;;8.82;1.77;;;;;;;18.90;93.67;100849.47;5000440;28;20477;-38
2023/12/26 04:40:09;;;;;;;6.35;1.83;;;;;;;18.93;93.59;100848.91;5003911;28;20025;-38
2023/12/26 04:42:35;;;;;;;5.30;1.45;;;;;;;18.95;93.10;100843.97;5000162;28;20041;-38
2023/12/26 04:45:00;;;;;;;14.73;2.17;;;;;;;18.98;92.88;100857.16;5003797;28;20038;-39
2023/12/26 04:47:28;;;;;;;5.13;1.90;;;;;;;19.01;93.17;100851.09;4999027;28;20112;-39
2023/12/26 04:49:53;;;;;;;6.85;1.90;;;;;;;19.03;93.00;100856.28;5006083;28;20034;-39
2023/12/26 04:52:19;;;;;;;5.90;1.77;;;;;;;19.06;92.10;100864.78;5006886;28;20033;-37
2023/12/26 04:54:44;;;;;;;8.48;1.95;;;;;;;19.08;92.39;100859.84;4980444;28;20494;-36
2023/12/26 04:57:11;;;;;;;6.13;1.90;;;;;;;19.11;91.12;100868.63;5004713;28;20038;-38
2023/12/26 04:59:39;;;;;;;6.45;1.90;;;;;;;19.11;91.82;100880.41;5000552;28;20029;-40
2023/12/26 05:02:04;;;;;;;7.90;1.80;;;;;;;19.11;91.14;100876.88;4998136;28;20033;-40
2023/12/26 05:04:30;;;;;;;9.85;2.30;;;;;;;19.07;90.73;100880.16;5000630;28;20100;-39
2023/12/26 05:06:55;;;;;;;8.52;1.85;;;;;;;19.02;91.00;100879.38;5004690;28;20196;-39
2023/12/26 05:09:21;;;;;;;5.72;1.70;;;;;;;18.97;90.83;100880.22;4999706;28;20410;-39
2023/12/26 05:11:46;;;;;;;5.70;1.77;;;;;;;18.93;91.12;100887.38;4997842;28;20047;-39
2023/12/26 05:14:12;;;;;;;4.00;1.63;;;;;;;18.91;91.42;100881.34;5000925;28;20036;-35
2023/12/26 05:16:40;;;;;;;4.55;1.80;;;;;;;18.90;91.14;100885.97;4999206;28;20039;-36
2023/12/26 05:19:07;;;;;;;5.78;2.00;;;;;;;18.92;91.23;100896.75;5003758;28;20490;-40
2023/12/26 05:21:32;;;;;;;4.28;1.83;;;;;;;18.94;91.12;100894.50;5005006;28;20037;-39
2023/12/26 05:23:58;;;;;;;4.03;1.70;;;;;;;18.96;90.98;100899.72;5001159;28;20022;-40
2023/12/26 05:26:23;;;;;;;6.22;1.98;;;;;;;19.00;90.71;100903.56;5000751;28;20021;-40
2023/12/26 05:28:48;;;;;;;5.03;1.55;;;;;;;19.04;90.31;100905.47;4995029;28;20545;-40
2023/12/26 05:31:18;;;;;;;4.22;1.52;;;;;;;19.10;90.14;100917.22;4990520;28;20029;-39
2023/12/26 05:33:44;;;;;;;4.65;1.80;;;;;;;19.16;90.10;100921.59;4983860;28;20121;-36
2023/12/26 05:36:09;;;;;;;4.22;1.67;;;;;;;19.23;89.85;100926.78;4999698;28;20036;-36
2023/12/26 05:38:35;;;;;;;4.85;2.00;;;;;;;19.30;89.70;100930.06;5001092;28;20384;-40
2023/12/26 05:41:04;;;;;;;3.67;1.70;;;;;;;19.40;89.46;100940.16;4990726;28;20549;-36
2023/12/26 05:43:29;;;;;;;2.97;1.60;;;;;;;19.47;89.02;100939.84;4988000;28;20021;-36
2023/12/26 05:45:54;;;;;;;3.95;1.60;;;;;;;19.53;88.76;100939.53;4999805;28;20045;-40
2023/12/26 05:48:20;;;;;;;3.40;1.60;;;;;;;19.61;88.72;100946.34;4997646;28;20112;-39
2023/12/26 05:50:45;;;;;;;4.40;1.80;;;;;;;19.66;88.30;100949.06;5001309;28;20578;-36
2023/12/26 05:53:11;;;;;;;4.50;1.80;;;;;;;19.72;88.13;100955.34;4999830;28;20033;-36
2023/12/26 05:55:36;;;;;;;5.22;1.73;;;;;;;19.75;87.82;100971.28;5000539;28;20391;-36
2023/12/26 05:58:02;;;;;;;5.78;1.95;;;;;;;19.79;87.62;100974.28;4999608;28;20549;-35
2023/12/26 06:00:27;;;;;;;3.20;1.60;;;;;;;19.80;87.23;100984.97;5001647;28;20033;-35
2023/12/26 06:02:52;;;;;;;4.18;1.60;;;;;;;19.81;87.46;100986.63;4993313;28;20030;-35
2023/12/26 06:05:18;;;;;;;4.20;1.77;;;;;;;19.81;87.34;100983.88;4997878;28;20037;-35
2023/12/26 06:07:43;;;;;;;5.15;2.00;;;;;;;19.82;87.36;100990.22;4992550;28;20030;-35
2023/12/26 06:10:09;;;;;;;5.65;1.80;;;;;;;19.79;86.71;100997.09;4991908;28;20061;-36
2023/12/26 06:12:34;;;;;;;5.15;1.90;;;;;;;19.79;87.00;100999.03;4996841;28;20030;-38
2023/12/26 06:14:59;;;;;;;4.85;1.77;;;;;;;19.78;87.01;101008.38;4995197;28;20099;-38
2023/12/26 06:17:26;;;;;;;5.32;1.88;;;;;;;19.77;86.41;101013.06;4999168;28;20040;-35
2023/12/26 06:19:51;;;;;;;4.50;1.70;;;;;;;19.75;86.77;101008.97;5020200;28;20028;-35
2023/12/26 06:22:17;;;;;;;5.30;1.98;;;;;;;19.73;86.19;101004.56;5003650;28;20038;-40
2023/12/26 06:24:42;;;;;;;6.72;1.85;;;;;;;19.72;85.89;101022.16;5004173;28;20064;-40
2023/12/26 06:27:08;;;;;;;6.03;1.98;;;;;;;19.68;86.36;101014.75;5001478;28;20029;-40
2023/12/26 06:29:33;;;;;;;4.50;1.85;;;;;;;19.65;86.37;101031.84;5008942;28;20103;-39
2023/12/26 06:31:58;;;;;;;4.78;1.90;;;;;;;19.61;86.44;101022.50;5010104;28;20026;-40
2023/12/26 06:34:24;;;;;;;4.00;1.75;;;;;;;19.57;85.95;101025.00;5008594;28;20018;-36
2023/12/26 06:36:49;;;;;;;6.30;1.80;;;;;;;19.55;86.55;101036.28;5009133;28;20034;-39
2023/12/26 06:39:15;;;;;;;5.47;1.92;;;;;;;19.50;86.30;101044.56;5004132;28;20177;-36
2023/12/26 06:41:41;;;;;;;4.32;1.55;;;;;;;19.47;86.11;101036.88;5002968;28;20112;-36
2023/12/26 06:44:07;;;;;;;4.82;1.85;;;;;;;19.46;86.25;101045.38;5001428;28;20018;-36
2023/12/26 06:46:34;;;;;;;4.78;1.70;;;;;;;19.44;86.02;101048.44;4986895;28;20033;-36
2023/12/26 06:48:59;;;;;;;6.10;1.90;;;;;;;19.44;86.08;101053.91;5004065;28;20116;-35
2023/12/26 06:51:25;;;;;;;4.55;1.90;;;;;;;19.45;86.38;101066.56;4993213;28;20297;-35
2023/12/26 06:53:50;;;;;;;5.85;2.00;;;;;;;19.46;85.91;101056.38;4999786;28;20478;-40
2023/12/26 06:56:15;;;;;;;4.28;1.60;;;;;;;19.47;85.92;101053.38;5003544;28;20040;-40
2023/12/26 06:58:41;;;;;;;5.38;2.10;;;;;;;19.48;85.99;101056.94;5001688;28;20034;-35
2023/12/26 07:01:10;;;;;;;5.82;1.90;;;;;;;19.47;86.04;101066.28;4995966;28;20134;-40
2023/12/26 07:03:35;;;;;;;5.57;2.08;;;;;;;19.45;85.74;101072.06;5003546;28;20032;-40
2023/12/26 07:06:00;;;;;;;6.32;2.00;;;;;;;19.45;86.15;101073.97;5001053;28;20030;-41
2023/12/26 07:08:26;;;;;;;7.15;2.00;;;;;;;19.43;85.98;101070.69;5006954;28;20018;-39
2023/12/26 07:10:51;;;;;;;5.90;1.73;;;;;;;19.41;85.94;101070.97;5005406;28;20028;-41
2023/12/26 07:13:17;;;;;;;4.50;1.70;;;;;;;19.39;85.76;101085.00;4998201;28;20049;-40
2023/12/26 07:15:42;;;;;;;5.55;1.80;;;;;;;19.37;85.91;101078.97;5001342;28;20048;-40
2023/12/26 07:18:09;;;;;;;4.95;2.05;;;;;;;19.36;85.98;101088.31;5006038;28;20031;-36
2023/12/26 07:20:34;;;;;;;5.50;1.90;;;;;;;19.34;85.92;101074.03;5003255;28;20430;-36
2023/12/26 07:23:00;;;;;;;5.28;2.10;;;;;;;19.33;85.80;101083.38;5005473;28;20029;-37
2023/12/26 07:25:26;;;;;;;4.70;1.90;;;;;;;19.29;85.93;101082.28;5000450;28;20029;-36
2023/12/26 07:27:52;;;;;;;6.28;1.80;;;;;;;19.29;85.79;101093.28;5002022;28;20104;-36
2023/12/26 07:30:17;;;;;;;5.07;2.03;;;;;;;19.28;85.50;101101.81;5000068;28;20073;-40
2023/12/26 07:32:43;;;;;;;6.03;1.90;;;;;;;19.26;85.73;101104.81;5003300;28;20429;-39
2023/12/26 07:35:08;;;;;;;5.95;1.83;;;;;;;19.23;85.18;101097.97;5002213;28;20034;-40
2023/12/26 07:37:34;;;;;;;6.00;1.90;;;;;;;19.21;84.78;101107.59;5004357;28;20379;-39
2023/12/26 07:39:59;;;;;;;6.03;1.88;;;;;;;19.18;85.13;101117.22;5010713;28;20035;-40
2023/12/26 07:42:24;;;;;;;5.03;1.70;;;;;;;19.17;84.77;101123.81;5000572;28;20018;-40
2023/12/26 07:44:50;;;;;;;6.07;1.83;;;;;;;19.15;85.32;101133.44;5003057;28;20278;-35
2023/12/26 07:47:15;;;;;;;8.15;2.03;;;;;;;19.13;85.08;101135.63;5000613;28;20526;-38
2023/12/26 07:49:41;;;;;;;6.35;1.98;;;;;;;19.11;84.73;101135.09;4995216;28;20578;-39
2023/12/26 07:52:06;;;;;;;7.90;1.70;;;;;;;19.06;84.34;101136.72;5000896;28;20549;-35
2023/12/26 07:54:32;;;;;;;5.97;1.80;;;;;;;19.05;84.39;101143.31;4984998;28;20584;-36
2023/12/26 07:56:57;;;;;;;7.13;2.30;;;;;;;19.04;84.67;101155.44;5001376;28;20040;-36
2023/12/26 07:59:22;;;;;;;5.68;2.10;;;;;;;19.02;84.50;101160.38;4998052;28;20515;-36
2023/12/26 08:01:48;;;;;;;8.20;2.00;;;;;;;18.98;84.20;101156.53;5000932;28;20032;-35
2023/12/26 08:04:13;;;;;;;6.88;2.00;;;;;;;18.98;83.85;101164.78;5003903;28;20018;-35
2023/12/26 08:06:39;;;;;;;6.45;2.00;;;;;;;18.98;84.40;101174.94;4999560;28;20494;-35
2023/12/26 08:09:04;;;;;;;7.22;2.08;;;;;;;18.95;83.07;101170.81;4994363;28;20022;-34
2023/12/26 08:11:29;;;;;;;8.85;2.05;;;;;;;18.95;83.10;101173.56;4992575;28;20215;-36
2023/12/26 08:13:55;;;;;;;8.45;1.90;;;;;;;18.92;82.57;101185.09;4989823;28;20031;-36
2023/12/26 08:16:20;;;;;;;4.43;1.70;;;;;;;18.91;82.36;101191.69;5014236;28;20046;-35
2023/12/26 08:18:46;;;;;;;7.95;2.08;;;;;;;18.89;82.93;101202.09;5001173;28;20033;-36
2023/12/26 08:21:11;;;;;;;9.32;2.25;;;;;;;18.89;83.08;101210.31;4991976;28;20503;-36
2023/12/26 08:23:36;;;;;;;6.05;2.05;;;;;;;18.88;83.38;101220.50;4994753;28;20079;-36
2023/12/26 08:26:06;;;;;;;7.82;1.95;;;;;;;18.87;83.18;101226.25;4997901;28;20033;-36
2023/12/26 08:28:32;;;;;;;7.85;2.13;;;;;;;18.87;83.63;101226.25;4992481;28;20026;-35
2023/12/26 08:30:57;;;;;;;8.05;2.38;;;;;;;18.86;83.74;101236.41;4995707;28;20068;-36
2023/12/26 08:33:24;;;;;;;6.68;1.90;;;;;;;18.86;83.50;101243.81;4992594;28;20087;-40
2023/12/26 08:35:50;;;;;;;8.43;2.20;;;;;;;18.85;83.56;101234.75;5008839;28;20025;-35
2023/12/26 08:38:15;;;;;;;5.75;1.92;;;;;;;18.85;83.55;101232.03;4983900;28;20038;-35
2023/12/26 08:40:41;;;;;;;7.18;2.20;;;;;;;18.85;83.83;101243.00;4992397;28;20459;-36
2023/12/26 08:43:06;;;;;;;8.18;2.13;;;;;;;18.85;82.93;101250.44;4997566;28;20466;-35
2023/12/26 08:45:32;;;;;;;5.80;2.40;;;;;;;18.83;83.33;101250.69;5000191;28;20030;-36
2023/12/26 08:47:59;;;;;;;10.32;2.58;;;;;;;18.83;83.19;101261.66;5000376;28;20034;-35
2023/12/26 08:50:24;;;;;;;9.35;2.50;;;;;;;18.82;82.87;101270.19;5003083;28;20053;-37
2023/12/26 08:52:50;;;;;;;7.25;2.03;;;;;;;18.80;82.89;101278.69;5000138;28;20065;-35
2023/12/26 08:55:16;;;;;;;5.43;2.17;;;;;;;18.79;83.41;101285.28;4999637;28;20513;-36
2023/12/26 08:57:41;;;;;;;7.38;2.10;;;;;;;18.79;83.21;101287.22;4997733;28;20121;-35
2023/12/26 09:00:09;;;;;;;10.02;2.30;;;;;;;18.78;82.89;101294.63;5000888;28;20125;-35
2023/12/26 09:02:35;;;;;;;5.45;1.80;;;;;;;18.79;83.05;101287.22;4985563;28;20200;-39
2023/12/26 09:05:02;;;;;;;7.50;2.20;;;;;;;18.78;83.19;101286.38;5002986;28;20038;-40
2023/12/26 09:07:29;;;;;;;5.72;1.98;;;;;;;18.79;83.20;101300.94;5003834;28;20061;-39
2023/12/26 09:09:55;;;;;;;4.47;1.67;;;;;;;18.80;83.46;101310.81;5008909;28;20077;-41
2023/12/26 09:12:21;;;;;;;6.50;2.00;;;;;;;18.82;83.47;101311.38;4999062;28;20490;-39
2023/12/26 09:14:47;;;;;;;6.70;2.10;;;;;;;18.83;83.46;101307.53;5001248;28;20828;-39
2023/12/26 09:17:13;;;;;;;7.38;2.25;;;;;;;18.86;83.69;101323.47;4997299;28;20029;-40
2023/12/26 09:19:39;;;;;;;8.23;2.50;;;;;;;18.88;83.56;101319.38;5000297;28;20029;-40
2023/12/26 09:22:04;;;;;;;5.38;2.10;;;;;;;18.91;83.33;101315.28;5001778;28;20095;-40
2023/12/26 09:24:29;;;;;;;6.07;2.28;;;;;;;18.95;83.53;101326.56;5005405;28;20446;-40
2023/12/26 09:26:55;;;;;;;5.95;1.98;;;;;;;18.96;83.15;101323.53;5001416;28;20033;-40
2023/12/26 09:29:21;;;;;;;8.13;2.40;;;;;;;18.98;83.46;101328.75;4989126;28;20129;-40
2023/12/26 09:31:47;;;;;;;6.63;2.08;;;;;;;19.00;83.24;101330.13;4976107;28;20447;-40
2023/12/26 09:34:12;;;;;;;9.20;2.35;;;;;;;19.02;83.23;101335.38;4964934;28;20038;-40
2023/12/26 09:36:37;;;;;;;4.35;1.90;;;;;;;19.02;83.21;101344.41;4978380;28;20210;-40
2023/12/26 09:39:03;;;;;;;5.65;1.95;;;;;;;19.05;83.27;101348.53;4983349;28;20038;-40
2023/12/26 09:41:28;;;;;;;7.65;2.42;;;;;;;19.06;83.12;101342.75;4979790;28;20030;-40
2023/12/26 09:43:54;;;;;;;7.75;2.10;;;;;;;19.07;83.21;101354.59;4966147;28;20082;-40
2023/12/26 09:46:20;;;;;;;8.93;2.40;;;;;;;19.08;83.04;101357.06;4963989;28;20037;-41
2023/12/26 09:48:45;;;;;;;6.43;2.20;;;;;;;19.11;83.00;101382.34;4982395;28;20045;-40
2023/12/26 09:51:24;;;;;;;8.30;2.47;;;;;;;19.10;82.98;101387.00;4982065;28;20030;-40
2023/12/26 09:53:59;;;;;;;8.77;2.08;;;;;;;19.12;82.78;101387.56;4983167;28;20391;-36
2023/12/26 09:56:25;;;;;;;7.45;2.10;;;;;;;19.12;82.61;101393.06;4985047;28;20113;-36
2023/12/26 09:58:53;;;;;;;8.32;2.55;;;;;;;19.14;82.70;101390.03;4984366;28;20065;-36
2023/12/26 10:01:20;;;;;;;6.97;2.67;;;;;;;19.14;82.48;101393.63;4985808;28;20395;-35
2023/12/26 10:03:46;;;;;;;9.30;2.35;;;;;;;19.14;82.61;101393.63;4984253;28;20033;-37
2023/12/26 10:06:13;;;;;;;10.13;2.78;;;;;;;19.15;82.11;101402.69;4985384;28;20030;-35
2023/12/26 10:08:40;;;;;;;8.73;2.20;;;;;;;19.15;82.26;101413.69;4984229;28;20298;-40
2023/12/26 10:11:06;;;;;;;7.55;2.25;;;;;;;19.16;82.00;101407.09;4984128;28;20038;-40
2023/12/26 10:13:49;;;;;;;13.95;2.75;;;;;;;19.17;81.97;101411.50;4982811;28;20030;-39
2023/12/26 10:16:15;;;;;;;6.00;2.35;;;;;;;19.16;82.10;101404.34;4968464;28;20117;-40
2023/12/26 10:18:40;;;;;;;9.85;2.63;;;;;;;19.18;82.13;101402.16;4983925;28;20109;-39
2023/12/26 10:21:06;;;;;;;6.65;2.30;;;;;;;19.19;82.24;101406.53;4982590;28;20763;-40
2023/12/26 10:23:32;;;;;;;7.20;2.30;;;;;;;19.21;81.82;101413.44;4977806;28;20665;-36
2023/12/26 10:25:57;;;;;;;8.32;2.70;;;;;;;19.22;81.79;101412.31;4966569;28;20034;-36
2023/12/26 10:28:23;;;;;;;6.82;2.33;;;;;;;19.27;81.74;101417.00;4965080;28;20027;-36
2023/12/26 10:30:48;;;;;;;6.55;2.45;;;;;;;19.30;81.43;101424.72;5002129;28;20041;-36
2023/12/26 10:33:23;;;;;;;7.57;2.50;;;;;;;19.32;81.23;101414.25;5005342;28;20553;-41
2023/12/26 10:36:01;;;;;;;7.85;2.33;;;;;;;19.35;80.91;101429.38;5003978;28;20089;-40
2023/12/26 10:38:26;;;;;;;8.68;2.45;;;;;;;19.38;80.85;101426.09;5003931;28;20018;-41
2023/12/26 10:40:52;;;;;;;10.40;2.60;;;;;;;19.40;80.38;101434.91;5004901;28;20025;-40
2023/12/26 10:43:18;;;;;;;9.43;2.88;;;;;;;19.42;80.19;101434.63;4983466;28;20549;-40
2023/12/26 10:45:44;;;;;;;6.32;2.15;;;;;;;19.42;80.29;101432.69;4983443;28;20038;-40
2023/12/26 10:48:09;;;;;;;7.05;2.47;;;;;;;19.43;80.21;101441.78;5003745;28;20123;-36
2023/12/26 10:50:35;;;;;;;6.47;2.50;;;;;;;19.40;79.88;101448.66;4985956;28;20030;-36
2023/12/26 10:53:19;;;;;;;8.00;2.17;;;;;;;19.42;79.85;101451.13;5003940;28;20442;-35
2023/12/26 10:55:45;;;;;;;5.20;2.20;;;;;;;19.40;79.86;101459.66;4983465;28;20042;-36
2023/12/26 10:58:18;;;;;;;6.47;2.40;;;;;;;19.41;80.04;101453.03;5001698;28;20140;-41
2023/12/26 13:52:55;;;;;;;7.57;1.90;;;;;;;19.25;76.28;101672.00;5001021;28;20426;-38
2023/12/26 13:55:58;;;;;;;4.85;2.00;;;;;;;19.24;76.39;101689.63;4998381;28;20045;-37
2023/12/26 13:59:01;;;;;;;6.03;1.83;;;;;;;19.23;76.33;101698.94;5002350;28;20042;-37
2023/12/26 14:02:04;;;;;;;5.05;2.08;;;;;;;19.23;76.40;101704.44;5004286;28;20145;-37
2023/12/26 14:05:07;;;;;;;7.35;1.85;;;;;;;19.21;76.48;101704.72;5004301;28;20026;-38
2023/12/26 14:08:10;;;;;;;7.22;1.60;;;;;;;19.21;76.39;101712.97;5002655;28;20471;-38
2023/12/26 14:11:13;;;;;;;4.40;1.40;;;;;;;19.21;76.23;101707.47;4997508;28;20077;-37
2023/12/26 14:14:16;;;;;;;4.78;2.05;;;;;;;19.20;76.23;101713.22;4999498;28;20022;-37